Time;durP1;ratioP1;P1;durP2;ratioP2;P2;SDS_P1;SDS_P2;PMS_P1;PMS_P2;Temp;Humidity;BMP_temperature;BMP_pressure;BME280_temperature;BME280_humidity;BME280_pressure;Samples;Min_cycle;Max_cycle;Signal;HPM_P1;HPM_P2
2023/02/15 00:02:40;;;;;;;;;;;3.50;1.00;;;;;;5095167;28;19956;-79
2023/02/15 00:05:22;;;;;;;;;;;3.50;1.00;;;;;;5090317;28;19920;-77
2023/02/15 00:07:48;;;;;;;;;;;3.50;1.00;;;;;;5087330;28;19908;-78
2023/02/15 00:10:40;;;;;;;;;;;3.60;1.00;;;;;;5091542;28;19964;-77
2023/02/15 00:13:11;;;;;;;;;;;3.60;1.00;;;;;;5085885;28;19996;-77
2023/02/15 00:15:36;;;;;;;;;;;3.60;1.00;;;;;;5094872;28;19991;-77
2023/02/15 00:21:40;;;;;;;;;;;3.70;1.00;;;;;;5080519;28;19958;-77
2023/02/15 00:24:22;;;;;;;;;;;3.70;1.00;;;;;;5093347;28;20271;-77
2023/02/15 00:26:59;;;;;;;;;;;3.70;1.00;;;;;;5094444;28;19966;-77
2023/02/15 00:29:41;;;;;;;;;;;3.70;1.00;;;;;;5094285;28;19965;-77
2023/02/15 00:32:10;;;;;;;;;;;3.80;1.00;;;;;;5088348;28;19964;-77
2023/02/15 00:35:10;;;;;;;;;;;3.80;1.00;;;;;;5095164;28;19915;-86
2023/02/15 00:37:52;;;;;;;;;;;3.70;1.00;;;;;;5065274;28;19908;-85
2023/02/15 00:40:18;;;;;;;;;;;3.70;1.00;;;;;;5086068;28;19944;-86
2023/02/15 00:42:53;;;;;;;;;;;3.70;1.00;;;;;;5064141;28;20270;-86
2023/02/15 00:45:52;;;;;;;;;;;3.70;1.00;;;;;;5071368;28;20330;-86
2023/02/15 00:51:23;;;;;;;;;;;3.60;1.00;;;;;;5081148;28;19919;-85
2023/02/15 00:53:53;;;;;;;;;;;3.60;1.00;;;;;;5076810;28;20271;-86
2023/02/15 00:56:23;;;;;;;;;;;3.60;1.00;;;;;;5094579;28;19908;-85
2023/02/15 01:01:53;;;;;;;;;;;3.50;1.00;;;;;;5093881;28;19914;-86
2023/02/15 01:04:40;;;;;;;;;;;3.50;1.00;;;;;;5069920;28;19995;-85
2023/02/15 01:07:22;;;;;;;;;;;3.50;1.00;;;;;;5094746;28;19958;-86
2023/02/15 01:09:53;;;;;;;;;;;3.50;1.00;;;;;;5064546;28;19951;-86
2023/02/15 01:12:23;;;;;;;;;;;3.60;1.00;;;;;;5075551;28;19908;-86
2023/02/15 01:15:23;;;;;;;;;;;3.50;1.00;;;;;;5081138;28;19912;-86
2023/02/15 01:18:05;;;;;;;;;;;3.50;1.00;;;;;;5067470;28;19918;-86
2023/02/15 01:20:41;;;;;;;;;;;3.40;1.00;;;;;;5093678;28;19912;-77
2023/02/15 01:23:11;;;;;;;;;;;3.40;1.00;;;;;;5083794;28;20011;-77
2023/02/15 01:25:53;;;;;;;;;;;3.40;1.00;;;;;;5098106;28;19908;-77
2023/02/15 01:28:23;;;;;;;;;;;3.40;1.00;;;;;;5097280;28;19992;-77
2023/02/15 01:30:53;;;;;;;;;;;3.50;1.00;;;;;;5097423;28;20057;-77
2023/02/15 01:33:23;;;;;;;;;;;3.50;1.00;;;;;;5084176;28;19915;-79
2023/02/15 01:36:10;;;;;;;;;;;3.50;1.00;;;;;;5089641;28;19908;-77
2023/02/15 01:38:53;;;;;;;;;;;3.50;1.00;;;;;;5079453;28;20259;-77
2023/02/15 01:41:23;;;;;;;;;;;3.50;1.00;;;;;;5097319;28;20371;-77
2023/02/15 01:44:00;;;;;;;;;;;3.50;1.00;;;;;;5097562;28;20306;-77
2023/02/15 01:46:53;;;;;;;;;;;3.50;1.00;;;;;;5091202;28;20295;-77
2023/02/15 01:49:25;;;;;;;;;;;3.50;1.00;;;;;;5097895;28;19980;-86
2023/02/15 01:52:10;;;;;;;;;;;3.60;1.00;;;;;;5072798;28;19908;-86
2023/02/15 01:54:37;;;;;;;;;;;3.60;1.00;;;;;;5079722;28;19923;-86
2023/02/15 01:57:23;;;;;;;;;;;3.60;1.00;;;;;;5079650;28;19920;-86
2023/02/15 02:00:23;;;;;;;;;;;3.70;1.00;;;;;;5062337;28;19908;-86
2023/02/15 02:03:23;;;;;;;;;;;3.70;1.00;;;;;;5090734;28;19908;-85
2023/02/15 02:08:52;;;;;;;;;;;3.70;1.00;;;;;;5088447;28;19923;-86
2023/02/15 02:11:23;;;;;;;;;;;3.70;1.00;;;;;;5079014;28;19919;-86
2023/02/15 02:13:53;;;;;;;;;;;3.70;1.00;;;;;;5097577;28;19908;-87
2023/02/15 02:16:23;;;;;;;;;;;3.70;1.00;;;;;;5074987;28;20110;-86
2023/02/15 02:19:23;;;;;;;;;;;3.70;1.00;;;;;;5078528;28;19973;-78
2023/02/15 02:22:07;;;;;;;;;;;3.70;1.00;;;;;;5085848;28;19909;-78
2023/02/15 02:24:47;;;;;;;;;;;3.70;1.00;;;;;;5096068;28;20418;-78
2023/02/15 02:27:29;;;;;;;;;;;3.70;1.00;;;;;;5095721;28;20321;-77
2023/02/15 02:33:22;;;;;;;;;;;3.70;1.00;;;;;;5083710;28;20282;-77
2023/02/15 02:35:59;;;;;;;;;;;3.70;1.00;;;;;;5096242;28;19916;-78
2023/02/15 02:38:38;;;;;;;;;;;3.70;1.00;;;;;;5096398;28;19908;-78
2023/02/15 02:41:35;;;;;;;;;;;3.60;1.00;;;;;;5096293;28;19908;-77
2023/02/15 02:44:22;;;;;;;;;;;3.50;1.00;;;;;;5084619;28;19915;-78
2023/02/15 02:47:11;;;;;;;;;;;3.70;1.00;;;;;;5084470;28;19931;-77
2023/02/15 02:49:58;;;;;;;;;;;3.70;1.00;;;;;;5083202;28;19918;-78
2023/02/15 02:52:41;;;;;;;;;;;3.70;1.00;;;;;;5075848;28;19931;-77
2023/02/15 02:55:13;;;;;;;;;;;3.60;1.00;;;;;;5096024;28;20295;-77
2023/02/15 02:57:45;;;;;;;;;;;3.70;1.00;;;;;;5096232;28;19910;-77
2023/02/15 03:00:11;;;;;;;;;;;3.70;1.00;;;;;;5093159;28;19908;-77
2023/02/15 03:02:58;;;;;;;;;;;3.70;1.00;;;;;;5088793;28;20373;-79
2023/02/15 03:05:44;;;;;;;;;;;3.70;1.00;;;;;;5084231;28;19908;-77
2023/02/15 03:08:23;;;;;;;;;;;3.70;1.00;;;;;;5085654;28;19916;-77
2023/02/15 03:10:55;;;;;;;;;;;3.70;1.00;;;;;;5095280;28;19912;-77
2023/02/15 03:13:23;;;;;;;;;;;3.70;1.00;;;;;;5085308;28;20410;-77
2023/02/15 03:18:57;;;;;;;;;;;3.70;1.00;;;;;;5088079;28;19915;-77
2023/02/15 03:24:53;;;;;;;;;;;3.80;1.00;;;;;;5014239;28;19910;-86
2023/02/15 03:27:25;;;;;;;;;;;3.80;1.00;;;;;;5013070;28;20364;-86
2023/02/15 03:30:10;;;;;;;;;;;3.80;1.00;;;;;;4994673;28;20564;-86
2023/02/15 03:32:53;;;;;;;;;;;3.60;1.00;;;;;;5013256;28;19955;-86
2023/02/15 03:35:24;;;;;;;;;;;3.60;1.00;;;;;;5014081;28;19995;-77
2023/02/15 03:37:57;;;;;;;;;;;3.70;1.00;;;;;;5013287;28;19920;-77
2023/02/15 03:43:41;;;;;;;;;;;3.70;1.00;;;;;;5012649;28;20400;-77
2023/02/15 03:46:41;;;;;;;;;;;3.70;1.00;;;;;;5011297;28;19948;-77
2023/02/15 03:49:41;;;;;;;;;;;3.70;1.00;;;;;;5012857;28;19957;-77
2023/02/15 03:55:08;;;;;;;;;;;3.70;1.00;;;;;;5013417;28;20427;-86
2023/02/15 04:06:41;;;;;;;;;;;3.80;1.00;;;;;;5095459;28;19915;-86
2023/02/15 04:12:09;;;;;;;;;;;3.70;1.00;;;;;;5094983;28;19918;-86
2023/02/15 04:32:47;;;;;;;;;;;3.50;1.00;;;;;;5094226;28;19999;-86
2023/02/15 04:35:41;;;;;;;;;;;3.50;1.00;;;;;;5095021;28;19915;-78
2023/02/15 04:38:41;;;;;;;;;;;3.50;1.00;;;;;;5093730;28;20360;-77
2023/02/15 04:41:41;;;;;;;;;;;3.50;1.00;;;;;;5095299;28;19912;-78
2023/02/15 04:44:41;;;;;;;;;;;3.50;1.00;;;;;;5094333;28;19912;-77
2023/02/15 04:47:11;;;;;;;;;;;3.60;1.00;;;;;;5089255;28;19917;-77
2023/02/15 04:50:11;;;;;;;;;;;3.50;1.00;;;;;;5081362;28;19912;-77
2023/02/15 04:52:36;;;;;;;;;;;3.40;1.00;;;;;;5075704;28;19956;-86
2023/02/15 04:55:11;;;;;;;;;;;3.50;1.00;;;;;;5078655;28;20003;-86
2023/02/15 04:57:59;;;;;;;;;;;3.50;1.00;;;;;;5073850;28;19959;-87
2023/02/15 05:00:24;;;;;;;;;;;3.50;1.00;;;;;;5086378;28;19919;-86
2023/02/15 05:06:11;;;;;;;;;;;3.60;1.00;;;;;;5098690;28;19915;-86
2023/02/15 05:08:41;;;;;;;;;;;3.60;1.00;;;;;;5080451;28;19908;-85
2023/02/15 05:17:35;;;;;;;;;;;3.60;1.00;;;;;;5081439;28;19965;-82
2023/02/15 05:20:11;;;;;;;;;;;3.60;1.00;;;;;;5088899;28;19919;-82
2023/02/15 05:23:11;;;;;;;;;;;3.60;1.00;;;;;;5081024;28;20007;-82
2023/02/15 05:29:11;;;;;;;;;;;3.50;1.00;;;;;;5097561;28;19961;-82
2023/02/15 05:34:41;;;;;;;;;;;3.50;1.00;;;;;;5077030;28;19927;-82
2023/02/15 05:37:11;;;;;;;;;;;3.50;1.00;;;;;;5093217;28;19911;-82
2023/02/15 05:40:11;;;;;;;;;;;3.60;1.00;;;;;;5097395;28;19908;-82
2023/02/15 05:42:59;;;;;;;;;;;3.60;1.00;;;;;;5093207;28;20356;-82
2023/02/15 05:45:24;;;;;;;;;;;3.50;1.00;;;;;;5092811;28;19951;-82
2023/02/15 05:57:11;;;;;;;;;;;3.30;1.00;;;;;;5096583;28;19922;-81
2023/02/15 05:59:41;;;;;;;;;;;3.40;1.00;;;;;;5076451;28;19908;-81
2023/02/15 06:05:09;;;;;;;;;;;3.30;1.00;;;;;;5079995;28;19919;-82
2023/02/15 06:08:11;;;;;;;;;;;3.10;1.00;;;;;;5089940;28;19912;-85
2023/02/15 06:10:36;;;;;;;;;;;3.20;1.00;;;;;;5077625;28;20057;-84
2023/02/15 06:13:11;;;;;;;;;;;3.10;1.00;;;;;;5079007;28;19946;-84
2023/02/15 06:16:11;;;;;;;;;;;3.00;1.00;;;;;;5082599;28;19991;-85
2023/02/15 06:18:59;;;;;;;;;;;3.10;1.00;;;;;;5085033;28;19914;-85
2023/02/15 06:21:41;;;;;;;;;;;3.10;1.00;;;;;;5073005;28;19918;-79
2023/02/15 06:24:08;;;;;;;;;;;3.00;1.00;;;;;;5092217;28;19917;-79
2023/02/15 06:26:41;;;;;;;;;;;2.90;1.00;;;;;;5085162;28;19955;-79
2023/02/15 06:29:07;;;;;;;;;;;2.90;1.00;;;;;;5095282;28;20367;-79
2023/02/15 06:31:42;;;;;;;;;;;2.90;1.50;;;;;;5088935;28;19950;-79
2023/02/15 06:34:41;;;;;;;;;;;3.00;1.80;;;;;;5096649;28;19908;-80
2023/02/15 06:37:35;;;;;;;;;;;3.10;1.70;;;;;;5091311;28;19998;-78
2023/02/15 06:40:11;;;;;;;;;;;3.00;1.00;;;;;;5096409;28;19919;-78
2023/02/15 06:42:41;;;;;;;;;;;3.10;1.90;;;;;;5096292;28;19953;-78
2023/02/15 06:45:41;;;;;;;;;;;3.10;1.30;;;;;;5093355;28;20332;-78
2023/02/15 06:48:41;;;;;;;;;;;3.10;1.00;;;;;;5089072;28;19916;-78
2023/02/15 06:51:41;;;;;;;;;;;3.00;3.00;;;;;;5094461;28;20006;-78
2023/02/15 06:54:06;;;;;;;;;;;3.10;2.90;;;;;;5078967;28;19912;-71
2023/02/15 06:56:32;;;;;;;;;;;3.10;3.10;;;;;;5083629;28;19961;-71
2023/02/15 06:58:58;;;;;;;;;;;3.10;3.10;;;;;;5092606;28;19915;-71
2023/02/15 07:01:24;;;;;;;;;;;3.00;2.20;;;;;;5084132;28;19912;-73
2023/02/15 07:03:49;;;;;;;;;;;3.10;9.60;;;;;;5087195;28;19931;-71
2023/02/15 07:06:15;;;;;;;;;;;3.00;14.40;;;;;;5081831;28;19919;-71
2023/02/15 07:08:41;;;;;;;;;;;3.30;10.20;;;;;;5084172;28;20004;-72
2023/02/15 07:13:52;;;;;;;;;;;2.80;12.10;;;;;;5079913;28;19927;-71
2023/02/15 07:16:18;;;;;;;;;;;2.80;10.40;;;;;;5089128;28;20000;-72
2023/02/15 07:19:11;;;;;;;;;;;2.80;12.20;;;;;;5079880;28;19912;-85
2023/02/15 07:22:05;;;;;;;;;;;2.70;8.70;;;;;;5090476;28;19934;-78
2023/02/15 07:24:35;;;;;;;;;;;2.70;12.30;;;;;;5066640;28;20351;-78
2023/02/15 07:27:35;;;;;;;;;;;2.80;10.30;;;;;;5087996;28;20321;-77
2023/02/15 07:30:12;;;;;;;;;;;2.50;8.70;;;;;;5090527;28;20003;-77
2023/02/15 07:33:22;;;;;;;;;;;2.30;12.50;;;;;;5085190;28;19970;-78
2023/02/15 07:36:01;;;;;;;;;;;2.40;15.20;;;;;;5094357;28;19915;-77
2023/02/15 07:41:30;;;;;;;;;;;2.40;19.30;;;;;;5010149;28;20054;-77
2023/02/15 07:43:59;;;;;;;;;;;2.50;20.50;;;;;;5006822;28;20058;-77
2023/02/15 07:46:53;;;;;;;;;;;2.40;17.60;;;;;;5009284;28;19914;-77
2023/02/15 07:49:23;;;;;;;;;;;2.40;17.70;;;;;;4999047;28;19917;-77
2023/02/15 07:52:11;;;;;;;;;;;2.30;16.10;;;;;;5013413;28;19996;-77
2023/02/15 07:55:12;;;;;;;;;;;2.40;17.70;;;;;;5013038;28;19916;-76
2023/02/15 07:58:05;;;;;;;;;;;2.50;15.30;;;;;;5012856;28;19921;-76
2023/02/15 08:00:56;;;;;;;;;;;2.60;14.20;;;;;;5011601;28;19909;-78
2023/02/15 08:03:30;;;;;;;;;;;2.70;11.10;;;;;;4992843;28;19989;-77
2023/02/15 08:08:59;;;;;;;;;;;2.70;1.50;;;;;;5009435;28;19933;-77
2023/02/15 08:11:41;;;;;;;;;;;2.70;1.00;;;;;;5018788;28;19996;-77
2023/02/15 08:17:09;;;;;;;;;;;2.60;1.00;;;;;;5089769;28;19987;-77
2023/02/15 08:20:11;;;;;;;;;;;2.60;1.00;;;;;;5094376;28;19908;-78
2023/02/15 08:22:53;;;;;;;;;;;2.50;1.00;;;;;;5074990;28;19908;-77
2023/02/15 08:28:23;;;;;;;;;;;2.50;1.00;;;;;;5084860;28;19931;-77
2023/02/15 08:33:52;;;;;;;;;;;2.70;1.00;;;;;;5094038;28;20420;-77
2023/02/15 08:36:41;;;;;;;;;;;2.70;1.00;;;;;;5081645;28;19955;-77
2023/02/15 08:42:11;;;;;;;;;;;2.70;1.00;;;;;;5082239;28;20310;-86
2023/02/15 08:47:39;;;;;;;;;;;2.80;1.00;;;;;;5087652;28;19965;-86
2023/02/15 08:53:11;;;;;;;;;;;2.80;1.00;;;;;;5079250;28;19974;-77
2023/02/15 08:56:11;;;;;;;;;;;2.90;1.00;;;;;;5090024;28;19919;-77
2023/02/15 08:59:11;;;;;;;;;;;3.00;1.00;;;;;;5094268;28;19951;-77
2023/02/15 09:01:48;;;;;;;;;;;3.00;1.00;;;;;;5087654;28;19915;-77
2023/02/15 09:04:17;;;;;;;;;;;3.00;1.00;;;;;;5094114;28;19908;-77
2023/02/15 09:07:11;;;;;;;;;;;2.90;1.00;;;;;;5076376;28;20364;-77
2023/02/15 09:09:59;;;;;;;;;;;2.60;1.00;;;;;;5076502;28;19912;-86
2023/02/15 09:18:33;;;;;;;;;;;2.40;1.00;;;;;;5094280;28;20427;-86
2023/02/15 09:21:19;;;;;;;;;;;2.60;1.00;;;;;;5076723;28;19915;-86
2023/02/15 09:24:05;;;;;;;;;;;2.70;1.00;;;;;;5076514;28;20275;-77
2023/02/15 09:26:32;;;;;;;;;;;2.90;1.00;;;;;;5088665;28;19908;-77
2023/02/15 09:32:17;;;;;;;;;;;3.00;1.00;;;;;;5073575;28;20007;-78
2023/02/15 09:41:11;;;;;;;;;;;3.20;1.00;;;;;;5085671;28;19950;-86
2023/02/15 09:43:59;;;;;;;;;;;3.30;1.00;;;;;;5076828;28;19955;-86
2023/02/15 09:52:41;;;;;;;;;;;3.50;1.00;;;;;;5098003;28;20042;-77
2023/02/15 09:58:35;;;;;;;;;;;3.60;1.00;;;;;;5095853;28;20401;-86
2023/02/15 10:01:11;;;;;;;;;;;3.60;1.00;;;;;;5070177;28;19958;-86
2023/02/15 10:04:11;;;;;;;;;;;3.60;1.00;;;;;;5079752;28;19908;-86
2023/02/15 10:10:11;;;;;;;;;;;3.60;1.00;;;;;;5090167;28;19985;-86
2023/02/15 10:13:11;;;;;;;;;;;3.50;1.00;;;;;;5079691;28;19915;-86
2023/02/15 10:18:47;;;;;;;;;;;3.40;1.00;;;;;;5076937;28;19915;-86
2023/02/15 10:36:59;;;;;;;;;;;3.40;1.00;;;;;;5096926;28;20345;-86
2023/02/15 10:42:59;;;;;;;;;;;3.70;1.00;;;;;;5092650;28;19919;-77
2023/02/15 10:48:53;;;;;;;;;;;3.70;1.00;;;;;;5084571;28;19978;-77
2023/02/15 10:51:27;;;;;;;;;;;3.80;1.00;;;;;;5096003;28;19912;-78
2023/02/15 10:57:02;;;;;;;;;;;3.90;1.00;;;;;;5096199;28;19938;-86
2023/02/15 10:59:28;;;;;;;;;;;4.00;1.00;;;;;;5082950;28;19950;-86
2023/02/15 11:01:58;;;;;;;;;;;3.90;1.00;;;;;;5096692;28;19908;-86
2023/02/15 11:04:41;;;;;;;;;;;4.10;1.00;;;;;;5096169;28;19914;-86
2023/02/15 11:13:15;;;;;;;;;;;3.60;1.00;;;;;;5086386;28;19942;-85
2023/02/15 11:15:53;;;;;;;;;;;3.50;1.00;;;;;;5076526;28;19935;-85
2023/02/15 11:21:53;;;;;;;;;;;3.70;1.00;;;;;;5079774;28;19931;-85
2023/02/15 11:24:41;;;;;;;;;;;3.90;1.00;;;;;;5078401;28;19944;-85
2023/02/15 11:36:41;;;;;;;;;;;4.00;1.00;;;;;;5095465;28;19915;-85
2023/02/15 11:48:41;;;;;;;;;;;4.40;1.00;;;;;;5094099;28;20003;-79
2023/02/15 11:51:18;;;;;;;;;;;4.40;1.00;;;;;;5095018;28;19920;-78
2023/02/15 11:56:49;;;;;;;;;;;4.70;1.00;;;;;;5092815;28;19996;-78
2023/02/15 11:59:43;;;;;;;;;;;4.80;1.00;;;;;;5094335;28;20326;-84
2023/02/15 12:02:15;;;;;;;;;;;4.60;1.00;;;;;;5073596;28;20316;-79
2023/02/15 12:05:11;;;;;;;;;;;4.70;1.00;;;;;;5087888;28;20279;-77
2023/02/15 12:10:47;;;;;;;;;;;4.50;1.00;;;;;;5092778;28;19965;-76
2023/02/15 12:16:42;;;;;;;;;;;4.30;1.00;;;;;;5083369;28;19915;-76
2023/02/15 12:19:41;;;;;;;;;;;4.40;1.00;;;;;;5094556;28;19908;-76
2023/02/15 12:22:41;;;;;;;;;;;4.60;1.00;;;;;;5094369;28;19908;-76
2023/02/15 12:25:29;;;;;;;;;;;4.60;1.00;;;;;;5088292;28;19908;-76
2023/02/15 12:28:31;;;;;;;;;;;4.80;1.00;;;;;;5090170;28;20282;-76
2023/02/15 12:43:31;;;;;;;;;;;4.70;1.00;;;;;;4990566;28;19925;-84
2023/02/15 12:49:10;;;;;;;;;;;4.80;1.00;;;;;;4991676;28;19984;-83
2023/02/15 12:54:42;;;;;;;;;;;4.90;1.00;;;;;;4980441;28;19933;-73
2023/02/15 12:57:26;;;;;;;;;;;5.20;1.00;;;;;;4985854;28;19917;-74
2023/02/15 12:59:53;;;;;;;;;;;5.20;1.00;;;;;;4991823;28;19973;-73
2023/02/15 13:02:41;;;;;;;;;;;5.30;1.00;;;;;;4988066;28;20423;-74
2023/02/15 13:05:35;;;;;;;;;;;5.20;1.00;;;;;;5041771;28;19940;-73
2023/02/15 13:08:05;;;;;;;;;;;5.30;1.00;;;;;;5089502;28;19912;-74
2023/02/15 13:10:39;;;;;;;;;;;5.30;1.00;;;;;;5094118;28;20378;-73
2023/02/15 13:13:17;;;;;;;;;;;5.30;1.00;;;;;;5082731;28;20304;-74
2023/02/15 13:16:11;;;;;;;;;;;5.10;1.00;;;;;;5090175;28;19912;-74
2023/02/15 13:18:45;;;;;;;;;;;5.20;1.00;;;;;;5085412;28;20007;-74
2023/02/15 13:21:18;;;;;;;;;;;5.30;1.00;;;;;;5079577;28;20329;-74
2023/02/15 13:23:48;;;;;;;;;;;5.30;1.00;;;;;;5092754;28;20310;-74
2023/02/15 13:26:30;;;;;;;;;;;5.20;1.00;;;;;;5075379;28;19908;-74
2023/02/15 13:29:18;;;;;;;;;;;5.10;1.00;;;;;;5089147;28;19934;-74
2023/02/15 13:32:11;;;;;;;;;;;5.30;1.00;;;;;;5084822;28;20264;-74
2023/02/15 13:34:41;;;;;;;;;;;5.40;1.00;;;;;;5064615;28;20330;-74
2023/02/15 13:37:36;;;;;;;;;;;5.40;1.00;;;;;;5097660;28;19936;-74
2023/02/15 13:40:35;;;;;;;;;;;5.30;1.00;;;;;;5077658;28;20433;-74
2023/02/15 13:43:12;;;;;;;;;;;5.50;1.00;;;;;;5094885;28;19912;-74
2023/02/15 13:49:01;;;;;;;;;;;5.30;1.00;;;;;;5087843;28;19958;-73
2023/02/15 13:54:41;;;;;;;;;;;5.30;1.00;;;;;;5097079;28;20400;-74
2023/02/15 14:00:35;;;;;;;;;;;5.40;1.00;;;;;;5093581;28;19989;-74
2023/02/15 14:03:13;;;;;;;;;;;5.50;1.00;;;;;;5088432;28;19958;-73
2023/02/15 14:06:11;;;;;;;;;;;5.40;1.00;;;;;;5090119;28;20274;-74
2023/02/15 14:08:41;;;;;;;;;;;5.30;1.00;;;;;;5080626;28;19908;-74
2023/02/15 14:11:19;;;;;;;;;;;5.20;1.00;;;;;;5097417;28;19916;-73
2023/02/15 14:17:11;;;;;;;;;;;5.40;1.00;;;;;;5090182;28;19996;-74
2023/02/15 14:20:05;;;;;;;;;;;5.40;1.00;;;;;;5082884;28;19912;-73
2023/02/15 14:22:43;;;;;;;;;;;5.40;1.00;;;;;;5089925;28;19912;-74
2023/02/15 14:25:41;;;;;;;;;;;5.40;1.00;;;;;;5085015;28;19990;-74
2023/02/15 14:28:15;;;;;;;;;;;5.50;1.00;;;;;;5095250;28;19912;-74
2023/02/15 14:30:44;;;;;;;;;;;5.50;1.00;;;;;;5091791;28;19927;-77
2023/02/15 14:33:19;;;;;;;;;;;5.30;1.00;;;;;;5090086;28;20390;-74
2023/02/15 14:41:00;;;;;;;;;;;5.30;1.00;;;;;;5089323;28;20386;-75
2023/02/15 14:41:59;;;;;;;;;;;5.10;1.00;;;;;;5094516;28;19991;-85
2023/02/15 14:44:45;;;;;;;;;;;5.10;1.00;;;;;;5091129;28;19995;-85
2023/02/15 14:47:18;;;;;;;;;;;5.20;1.00;;;;;;5096984;28;19920;-85
2023/02/15 14:53:11;;;;;;;;;;;5.10;1.00;;;;;;5096322;28;19914;-85
2023/02/15 14:55:41;;;;;;;;;;;5.20;1.00;;;;;;5097218;28;19909;-75
2023/02/15 14:58:17;;;;;;;;;;;5.00;1.00;;;;;;5082338;28;19908;-76
2023/02/15 15:00:47;;;;;;;;;;;5.20;1.00;;;;;;5086775;28;19924;-75
2023/02/15 15:03:29;;;;;;;;;;;5.10;1.00;;;;;;5095780;28;19908;-75
2023/02/15 15:06:23;;;;;;;;;;;5.00;1.00;;;;;;5092351;28;20363;-76
2023/02/15 15:09:11;;;;;;;;;;;5.00;1.00;;;;;;5086489;28;19977;-75
2023/02/15 15:14:41;;;;;;;;;;;5.00;1.00;;;;;;5081335;28;19916;-85
2023/02/15 15:17:15;;;;;;;;;;;4.90;1.00;;;;;;5078428;28;19908;-85
2023/02/15 15:20:13;;;;;;;;;;;4.90;1.00;;;;;;5096439;28;20006;-85
2023/02/15 15:23:11;;;;;;;;;;;4.80;1.00;;;;;;5072435;28;19912;-85
2023/02/15 15:25:45;;;;;;;;;;;4.70;1.00;;;;;;5096385;28;19908;-77
2023/02/15 15:28:41;;;;;;;;;;;4.70;1.00;;;;;;5095217;28;19912;-76
2023/02/15 15:31:41;;;;;;;;;;;4.80;1.00;;;;;;5095275;28;19956;-75
2023/02/15 15:34:43;;;;;;;;;;;4.90;1.00;;;;;;5093265;28;19961;-75
2023/02/15 15:37:18;;;;;;;;;;;4.80;1.00;;;;;;5013482;28;20364;-75
2023/02/15 15:40:12;;;;;;;;;;;4.80;1.00;;;;;;5012775;28;19960;-76
2023/02/15 15:42:48;;;;;;;;;;;4.70;1.00;;;;;;5014649;28;19909;-85
2023/02/15 15:45:41;;;;;;;;;;;4.60;1.00;;;;;;5000968;28;19924;-85
2023/02/15 15:48:41;;;;;;;;;;;4.70;1.00;;;;;;4997710;28;19913;-85
2023/02/15 15:51:41;;;;;;;;;;;4.60;1.00;;;;;;4989865;28;19925;-83
2023/02/15 15:54:41;;;;;;;;;;;4.50;1.00;;;;;;4996991;28;20406;-85
2023/02/15 15:57:15;;;;;;;;;;;4.60;1.00;;;;;;4990094;28;19910;-76
2023/02/15 15:59:43;;;;;;;;;;;4.70;1.00;;;;;;5012939;28;19928;-75
2023/02/15 16:05:12;;;;;;;;;;;4.80;1.00;;;;;;5012481;28;20017;-75
2023/02/15 16:07:48;;;;;;;;;;;4.70;1.00;;;;;;5012693;28;20416;-75
2023/02/15 16:10:22;;;;;;;;;;;4.70;1.00;;;;;;5017691;28;19917;-75
2023/02/15 16:13:11;;;;;;;;;;;4.60;1.00;;;;;;5092533;28;19915;-85
2023/02/15 16:15:44;;;;;;;;;;;4.40;1.00;;;;;;5069344;28;19915;-85
2023/02/15 16:18:14;;;;;;;;;;;4.40;1.00;;;;;;5081698;28;19908;-85
2023/02/15 16:21:11;;;;;;;;;;;4.20;1.00;;;;;;5089708;28;20040;-85
2023/02/15 16:26:58;;;;;;;;;;;4.30;1.00;;;;;;5085771;28;19914;-85
2023/02/15 16:29:41;;;;;;;;;;;4.30;1.00;;;;;;5084481;28;19950;-85
2023/02/15 16:32:41;;;;;;;;;;;4.20;1.00;;;;;;5071944;28;20266;-85
2023/02/15 16:35:14;;;;;;;;;;;4.10;1.00;;;;;;5073518;28;19997;-87
2023/02/15 16:38:11;;;;;;;;;;;4.00;1.00;;;;;;5077219;28;19908;-87
2023/02/15 16:43:43;;;;;;;;;;;3.80;1.00;;;;;;5082947;28;19935;-77
2023/02/15 16:46:41;;;;;;;;;;;3.90;1.00;;;;;;5080221;28;19970;-77
2023/02/15 16:49:14;;;;;;;;;;;4.00;1.00;;;;;;5056556;28;19920;-78
2023/02/15 16:51:41;;;;;;;;;;;3.90;1.00;;;;;;5070549;28;20317;-77
2023/02/15 16:54:18;;;;;;;;;;;4.00;1.00;;;;;;5083403;28;19913;-77
2023/02/15 16:56:46;;;;;;;;;;;4.00;1.00;;;;;;5090871;28;19908;-77
2023/02/15 16:59:44;;;;;;;;;;;4.00;1.00;;;;;;5091745;28;19923;-77
2023/02/15 17:02:24;;;;;;;;;;;4.00;1.00;;;;;;5095264;28;19908;-77
2023/02/15 17:05:11;;;;;;;;;;;4.10;1.00;;;;;;5100632;28;19908;-77
2023/02/15 17:08:11;;;;;;;;;;;3.90;1.00;;;;;;5100694;28;19993;-77
2023/02/15 17:11:11;;;;;;;;;;;3.90;1.00;;;;;;5100225;28;20049;-77
2023/02/15 17:17:11;;;;;;;;;;;3.90;1.00;;;;;;5086600;28;19967;-79
2023/02/15 17:19:48;;;;;;;;;;;4.00;1.00;;;;;;5100535;28;19915;-79
2023/02/15 17:22:41;;;;;;;;;;;3.90;1.00;;;;;;5100547;28;19915;-79
2023/02/15 17:28:41;;;;;;;;;;;3.70;1.00;;;;;;5095685;28;19915;-80
2023/02/15 17:31:13;;;;;;;;;;;3.80;1.00;;;;;;5100430;28;19912;-79
2023/02/15 17:33:42;;;;;;;;;;;3.80;1.00;;;;;;5095697;28;19908;-79
2023/02/15 17:36:11;;;;;;;;;;;3.80;1.00;;;;;;5100304;28;20286;-79
2023/02/15 17:39:11;;;;;;;;;;;3.80;1.00;;;;;;5100653;28;19908;-80
2023/02/15 17:41:41;;;;;;;;;;;3.80;1.00;;;;;;5100359;28;19908;-79
2023/02/15 17:44:13;;;;;;;;;;;3.80;1.00;;;;;;5092644;28;19961;-77
2023/02/15 17:46:42;;;;;;;;;;;3.80;1.00;;;;;;5100846;28;20429;-78
2023/02/15 17:49:22;;;;;;;;;;;3.80;1.00;;;;;;5100341;28;19912;-78
2023/02/15 17:52:11;;;;;;;;;;;3.90;1.00;;;;;;5100754;28;19916;-77
2023/02/15 17:57:41;;;;;;;;;;;3.90;1.00;;;;;;5101129;28;19915;-79
2023/02/15 18:12:31;;;;;;;;;;;3.80;1.00;;;;;;5094143;28;19919;-78
2023/02/15 18:15:11;;;;;;;;;;;3.70;1.00;;;;;;5034564;28;20368;-79
2023/02/15 18:18:11;;;;;;;;;;;3.60;1.00;;;;;;5031691;28;19910;-79
2023/02/15 18:20:42;;;;;;;;;;;3.70;1.00;;;;;;5023866;28;19910;-79
2023/02/15 18:26:41;;;;;;;;;;;3.70;1.00;;;;;;5014546;28;19917;-79
2023/02/15 18:29:18;;;;;;;;;;;3.60;1.00;;;;;;5019902;28;19909;-78
2023/02/15 18:31:44;;;;;;;;;;;3.60;1.00;;;;;;5031937;28;19913;-77
2023/02/15 18:34:22;;;;;;;;;;;3.60;1.00;;;;;;5030451;28;19913;-77
2023/02/15 18:36:53;;;;;;;;;;;3.60;1.00;;;;;;5029285;28;19963;-78
2023/02/15 18:39:44;;;;;;;;;;;3.60;1.00;;;;;;5034188;28;19943;-77
2023/02/15 18:42:21;;;;;;;;;;;3.60;1.00;;;;;;5034149;28;19944;-77
2023/02/15 18:54:16;;;;;;;;;;;3.60;1.00;;;;;;5084534;28;19997;-79
2023/02/15 18:57:11;;;;;;;;;;;3.60;1.00;;;;;;5095915;28;19908;-79
2023/02/15 18:59:37;;;;;;;;;;;3.60;1.00;;;;;;5095836;28;19920;-79
2023/02/15 19:02:16;;;;;;;;;;;3.60;1.00;;;;;;5095835;28;19960;-79
2023/02/15 19:08:11;;;;;;;;;;;3.50;1.00;;;;;;5086976;28;20322;-79
2023/02/15 19:10:41;;;;;;;;;;;3.50;1.00;;;;;;5091132;28;19916;-79
2023/02/15 19:13:12;;;;;;;;;;;3.50;1.00;;;;;;5088714;28;19908;-87
2023/02/15 19:15:41;;;;;;;;;;;3.40;1.00;;;;;;5077311;28;19908;-88
2023/02/15 19:18:41;;;;;;;;;;;3.50;1.00;;;;;;5073866;28;19928;-87
2023/02/15 19:21:14;;;;;;;;;;;3.40;1.00;;;;;;5069663;28;19913;-87
2023/02/15 19:23:41;;;;;;;;;;;3.40;1.00;;;;;;5074802;28;20261;-88
2023/02/15 19:26:11;;;;;;;;;;;3.50;1.00;;;;;;5071696;28;19908;-87
2023/02/15 19:28:48;;;;;;;;;;;3.30;1.00;;;;;;5058213;28;19909;-77
2023/02/15 19:34:29;;;;;;;;;;;3.30;1.00;;;;;;5087735;28;19915;-77
2023/02/15 19:37:18;;;;;;;;;;;3.30;1.00;;;;;;5083164;28;20313;-78
2023/02/15 19:39:44;;;;;;;;;;;3.40;1.00;;;;;;5087141;28;19985;-79
2023/02/15 19:42:41;;;;;;;;;;;3.40;1.00;;;;;;5085481;28;20363;-80
2023/02/15 19:45:13;;;;;;;;;;;3.40;1.00;;;;;;5091637;28;19912;-79
2023/02/15 19:47:42;;;;;;;;;;;3.40;1.00;;;;;;5094993;28;19916;-76
2023/02/15 19:50:24;;;;;;;;;;;3.40;1.00;;;;;;5084682;28;19912;-76
2023/02/15 19:53:00;;;;;;;;;;;3.40;1.00;;;;;;5094871;28;19995;-78
2023/02/15 19:55:41;;;;;;;;;;;3.40;1.00;;;;;;5094960;28;19926;-77
2023/02/15 19:58:10;;;;;;;;;;;3.40;1.00;;;;;;5083919;28;19995;-86
2023/02/15 20:00:41;;;;;;;;;;;3.40;1.00;;;;;;5094392;28;19923;-77
2023/02/15 20:03:11;;;;;;;;;;;3.50;1.00;;;;;;5095272;28;19908;-76
2023/02/15 20:05:53;;;;;;;;;;;3.60;1.00;;;;;;5090788;28;20378;-77
2023/02/15 20:08:20;;;;;;;;;;;3.50;1.00;;;;;;5086810;28;19995;-77
2023/02/15 20:11:11;;;;;;;;;;;3.50;1.00;;;;;;5095067;28;19956;-76
2023/02/15 20:13:41;;;;;;;;;;;3.50;1.00;;;;;;5078944;28;19955;-87
2023/02/15 20:16:11;;;;;;;;;;;3.50;1.00;;;;;;5066607;28;19912;-86
2023/02/15 20:19:14;;;;;;;;;;;3.30;1.00;;;;;;5063021;28;19951;-87
2023/02/15 20:24:42;;;;;;;;;;;3.30;1.00;;;;;;5101372;28;19915;-87
2023/02/15 20:27:42;;;;;;;;;;;3.40;1.00;;;;;;5076736;28;19908;-87
2023/02/15 20:30:41;;;;;;;;;;;3.40;1.00;;;;;;5076278;28;19920;-76
2023/02/15 20:33:12;;;;;;;;;;;3.30;1.00;;;;;;5090768;28;20007;-76
2023/02/15 20:35:38;;;;;;;;;;;3.20;1.00;;;;;;5090770;28;19919;-76
2023/02/15 20:38:15;;;;;;;;;;;3.30;1.00;;;;;;5094326;28;20321;-76
2023/02/15 20:41:34;;;;;;;;;;;3.20;1.00;;;;;;5089444;28;20394;-76
2023/02/15 20:43:41;;;;;;;;;;;3.10;1.00;;;;;;5085733;28;19920;-80
2023/02/15 20:46:12;;;;;;;;;;;3.10;1.00;;;;;;5095007;28;19991;-87
2023/02/15 20:48:59;;;;;;;;;;;3.20;1.00;;;;;;5094036;28;19912;-87
2023/02/15 20:51:43;;;;;;;;;;;3.40;1.00;;;;;;5063353;28;19919;-87
2023/02/15 20:54:42;;;;;;;;;;;3.40;1.00;;;;;;5076949;28;19908;-86
2023/02/15 20:57:35;;;;;;;;;;;3.50;1.00;;;;;;5068715;28;19912;-87
2023/02/15 21:00:02;;;;;;;;;;;3.40;1.00;;;;;;5087505;28;19920;-87
2023/02/15 21:02:41;;;;;;;;;;;3.50;1.00;;;;;;5061221;28;19951;-87